sensor_id;sensor_type;location;lat;lon;timestamp;temperature;humidity
10089;DHT22;51898;49.864;8.550;2023-08-20T00:01:12;24.10;81.40
10089;DHT22;51898;49.864;8.550;2023-08-20T00:04:16;24.00;82.10
10089;DHT22;51898;49.864;8.550;2023-08-20T00:07:18;24.00;82.30
10089;DHT22;51898;49.864;8.550;2023-08-20T00:10:20;23.90;82.40
10089;DHT22;51898;49.864;8.550;2023-08-20T00:13:22;23.80;83.20
10089;DHT22;51898;49.864;8.550;2023-08-20T00:16:23;23.70;83.70
10089;DHT22;51898;49.864;8.550;2023-08-20T00:19:25;23.60;84.00
10089;DHT22;51898;49.864;8.550;2023-08-20T00:22:27;23.40;84.40
10089;DHT22;51898;49.864;8.550;2023-08-20T00:25:29;23.40;84.50
10089;DHT22;51898;49.864;8.550;2023-08-20T00:28:31;23.40;84.60
10089;DHT22;51898;49.864;8.550;2023-08-20T00:31:35;23.40;84.50
10089;DHT22;51898;49.864;8.550;2023-08-20T00:34:37;23.40;83.60
10089;DHT22;51898;49.864;8.550;2023-08-20T00:37:39;23.30;82.60
10089;DHT22;51898;49.864;8.550;2023-08-20T00:40:40;23.30;82.90
10089;DHT22;51898;49.864;8.550;2023-08-20T00:43:42;23.30;82.80
10089;DHT22;51898;49.864;8.550;2023-08-20T00:46:44;23.30;82.80
10089;DHT22;51898;49.864;8.550;2023-08-20T00:49:46;23.30;82.80
10089;DHT22;51898;49.864;8.550;2023-08-20T00:52:48;23.30;82.50
10089;DHT22;51898;49.864;8.550;2023-08-20T00:55:50;23.20;81.30
10089;DHT22;51898;49.864;8.550;2023-08-20T00:58:53;23.20;81.20
10089;DHT22;51898;49.864;8.550;2023-08-20T01:01:55;23.20;80.90
10089;DHT22;51898;49.864;8.550;2023-08-20T01:04:57;23.10;80.40
10089;DHT22;51898;49.864;8.550;2023-08-20T01:11:52;23.10;80.40
10089;DHT22;51898;49.864;8.550;2023-08-20T01:14:59;23.10;80.50
10089;DHT22;51898;49.864;8.550;2023-08-20T01:18:01;23.00;80.50
10089;DHT22;51898;49.864;8.550;2023-08-20T01:21:06;23.00;80.40
10089;DHT22;51898;49.864;8.550;2023-08-20T01:30:59;22.90;80.70
10089;DHT22;51898;49.864;8.550;2023-08-20T01:34:02;22.90;81.10
10089;DHT22;51898;49.864;8.550;2023-08-20T01:37:05;22.90;81.30
10089;DHT22;51898;49.864;8.550;2023-08-20T01:40:07;22.70;81.90
10089;DHT22;51898;49.864;8.550;2023-08-20T01:43:12;22.70;82.30
10089;DHT22;51898;49.864;8.550;2023-08-20T01:46:14;22.60;83.10
10089;DHT22;51898;49.864;8.550;2023-08-20T01:49:16;22.60;83.20
10089;DHT22;51898;49.864;8.550;2023-08-20T01:52:18;22.60;83.60
10089;DHT22;51898;49.864;8.550;2023-08-20T01:55:19;22.50;83.80
10089;DHT22;51898;49.864;8.550;2023-08-20T01:58:21;22.40;83.90
10089;DHT22;51898;49.864;8.550;2023-08-20T02:01:22;22.40;84.10
10089;DHT22;51898;49.864;8.550;2023-08-20T02:04:24;22.30;83.80
10089;DHT22;51898;49.864;8.550;2023-08-20T02:07:26;22.30;83.70
10089;DHT22;51898;49.864;8.550;2023-08-20T02:10:27;22.30;84.30
10089;DHT22;51898;49.864;8.550;2023-08-20T02:13:30;22.30;84.70
10089;DHT22;51898;49.864;8.550;2023-08-20T02:16:32;22.30;85.20
10089;DHT22;51898;49.864;8.550;2023-08-20T02:19:33;22.10;86.40
10089;DHT22;51898;49.864;8.550;2023-08-20T02:22:35;21.70;88.00
10089;DHT22;51898;49.864;8.550;2023-08-20T02:25:37;21.50;88.20
10089;DHT22;51898;49.864;8.550;2023-08-20T02:28:39;21.40;88.90
10089;DHT22;51898;49.864;8.550;2023-08-20T02:31:41;21.20;89.60
10089;DHT22;51898;49.864;8.550;2023-08-20T02:34:43;21.00;89.80
10089;DHT22;51898;49.864;8.550;2023-08-20T02:37:45;21.00;90.30
10089;DHT22;51898;49.864;8.550;2023-08-20T02:40:47;20.90;90.80
10089;DHT22;51898;49.864;8.550;2023-08-20T02:43:48;20.80;91.40
10089;DHT22;51898;49.864;8.550;2023-08-20T02:46:50;20.80;91.80
10089;DHT22;51898;49.864;8.550;2023-08-20T02:49:52;20.70;91.90
10089;DHT22;51898;49.864;8.550;2023-08-20T02:52:54;20.80;91.90
10089;DHT22;51898;49.864;8.550;2023-08-20T02:55:56;20.80;91.60
10089;DHT22;51898;49.864;8.550;2023-08-20T02:58:58;20.80;91.30
10089;DHT22;51898;49.864;8.550;2023-08-20T03:02:00;20.80;91.00
10089;DHT22;51898;49.864;8.550;2023-08-20T03:05:02;20.80;90.50
10089;DHT22;51898;49.864;8.550;2023-08-20T03:08:04;20.90;90.10
10089;DHT22;51898;49.864;8.550;2023-08-20T03:11:06;20.90;89.80
10089;DHT22;51898;49.864;8.550;2023-08-20T03:14:08;20.90;89.30
10089;DHT22;51898;49.864;8.550;2023-08-20T03:17:10;20.90;89.20
10089;DHT22;51898;49.864;8.550;2023-08-20T03:20:11;20.90;89.10
10089;DHT22;51898;49.864;8.550;2023-08-20T03:23:13;20.90;89.10
10089;DHT22;51898;49.864;8.550;2023-08-20T03:26:15;20.90;89.40
10089;DHT22;51898;49.864;8.550;2023-08-20T03:29:16;20.90;89.40
10089;DHT22;51898;49.864;8.550;2023-08-20T03:32:18;20.90;89.60
10089;DHT22;51898;49.864;8.550;2023-08-20T03:35:20;20.90;89.60
10089;DHT22;51898;49.864;8.550;2023-08-20T03:38:22;20.90;89.60
10089;DHT22;51898;49.864;8.550;2023-08-20T03:41:23;21.00;89.40
10089;DHT22;51898;49.864;8.550;2023-08-20T03:44:25;21.00;89.30
10089;DHT22;51898;49.864;8.550;2023-08-20T03:47:27;21.00;89.10
10089;DHT22;51898;49.864;8.550;2023-08-20T03:50:29;21.00;88.80
10089;DHT22;51898;49.864;8.550;2023-08-20T03:53:30;21.00;88.90
10089;DHT22;51898;49.864;8.550;2023-08-20T03:56:32;21.00;89.10
10089;DHT22;51898;49.864;8.550;2023-08-20T03:59:34;21.00;89.30
10089;DHT22;51898;49.864;8.550;2023-08-20T04:02:35;20.90;89.60
10089;DHT22;51898;49.864;8.550;2023-08-20T04:05:38;21.00;89.90
10089;DHT22;51898;49.864;8.550;2023-08-20T04:08:40;20.90;89.90
10089;DHT22;51898;49.864;8.550;2023-08-20T04:11:42;20.90;90.00
10089;DHT22;51898;49.864;8.550;2023-08-20T04:14:43;20.90;90.00
10089;DHT22;51898;49.864;8.550;2023-08-20T04:17:45;20.90;90.00
10089;DHT22;51898;49.864;8.550;2023-08-20T04:20:50;20.80;90.00
10089;DHT22;51898;49.864;8.550;2023-08-20T04:23:52;20.80;90.20
10089;DHT22;51898;49.864;8.550;2023-08-20T04:26:53;20.70;90.50
10089;DHT22;51898;49.864;8.550;2023-08-20T04:29:56;20.50;91.30
10089;DHT22;51898;49.864;8.550;2023-08-20T04:32:58;20.40;91.60
10089;DHT22;51898;49.864;8.550;2023-08-20T04:35:59;20.40;91.80
10089;DHT22;51898;49.864;8.550;2023-08-20T04:39:01;20.40;91.50
10089;DHT22;51898;49.864;8.550;2023-08-20T04:42:04;20.50;91.50
10089;DHT22;51898;49.864;8.550;2023-08-20T04:45:06;20.70;90.80
10089;DHT22;51898;49.864;8.550;2023-08-20T04:48:08;20.80;89.50
10089;DHT22;51898;49.864;8.550;2023-08-20T04:51:10;20.80;88.90
10089;DHT22;51898;49.864;8.550;2023-08-20T04:54:12;21.00;88.40
10089;DHT22;51898;49.864;8.550;2023-08-20T04:57:14;21.20;87.50
10089;DHT22;51898;49.864;8.550;2023-08-20T05:00:15;21.40;86.50
10089;DHT22;51898;49.864;8.550;2023-08-20T05:03:17;21.40;86.20
10089;DHT22;51898;49.864;8.550;2023-08-20T05:06:19;21.50;86.10
10089;DHT22;51898;49.864;8.550;2023-08-20T05:09:21;21.60;85.80
10089;DHT22;51898;49.864;8.550;2023-08-20T05:12:23;21.60;85.80
10089;DHT22;51898;49.864;8.550;2023-08-20T05:15:27;21.80;85.10
10089;DHT22;51898;49.864;8.550;2023-08-20T05:18:29;21.80;84.90
10089;DHT22;51898;49.864;8.550;2023-08-20T05:21:30;21.90;85.10
10089;DHT22;51898;49.864;8.550;2023-08-20T05:24:32;21.80;85.00
10089;DHT22;51898;49.864;8.550;2023-08-20T05:27:34;22.00;85.30
10089;DHT22;51898;49.864;8.550;2023-08-20T05:30:38;22.10;84.80
10089;DHT22;51898;49.864;8.550;2023-08-20T05:33:40;22.20;84.30
10089;DHT22;51898;49.864;8.550;2023-08-20T05:36:42;22.30;84.50
10089;DHT22;51898;49.864;8.550;2023-08-20T05:39:44;22.50;83.40
10089;DHT22;51898;49.864;8.550;2023-08-20T05:42:46;22.50;83.20
10089;DHT22;51898;49.864;8.550;2023-08-20T05:45:50;22.60;82.80
10089;DHT22;51898;49.864;8.550;2023-08-20T05:48:52;22.60;83.20
10089;DHT22;51898;49.864;8.550;2023-08-20T05:51:54;22.50;83.60
10089;DHT22;51898;49.864;8.550;2023-08-20T05:54:56;22.70;82.90
10089;DHT22;51898;49.864;8.550;2023-08-20T05:57:57;22.80;82.50
10089;DHT22;51898;49.864;8.550;2023-08-20T06:00:59;23.00;81.70
10089;DHT22;51898;49.864;8.550;2023-08-20T06:04:01;23.10;80.60
10089;DHT22;51898;49.864;8.550;2023-08-20T06:07:03;23.40;79.70
10089;DHT22;51898;49.864;8.550;2023-08-20T06:10:05;23.50;79.50
10089;DHT22;51898;49.864;8.550;2023-08-20T06:13:07;23.70;79.30
10089;DHT22;51898;49.864;8.550;2023-08-20T06:16:09;23.80;79.00
10089;DHT22;51898;49.864;8.550;2023-08-20T06:19:15;23.80;78.60
10089;DHT22;51898;49.864;8.550;2023-08-20T06:22:17;23.90;77.10
10089;DHT22;51898;49.864;8.550;2023-08-20T06:25:19;24.00;76.90
10089;DHT22;51898;49.864;8.550;2023-08-20T06:28:21;24.00;76.20
10089;DHT22;51898;49.864;8.550;2023-08-20T06:31:23;24.00;77.20
10089;DHT22;51898;49.864;8.550;2023-08-20T06:34:25;24.00;77.60
10089;DHT22;51898;49.864;8.550;2023-08-20T06:37:26;24.10;77.70
10089;DHT22;51898;49.864;8.550;2023-08-20T06:40:28;24.20;77.70
10089;DHT22;51898;49.864;8.550;2023-08-20T06:43:30;24.30;77.10
10089;DHT22;51898;49.864;8.550;2023-08-20T06:46:32;24.40;77.10
10089;DHT22;51898;49.864;8.550;2023-08-20T06:49:33;24.50;76.60
10089;DHT22;51898;49.864;8.550;2023-08-20T06:52:35;24.50;76.50
10089;DHT22;51898;49.864;8.550;2023-08-20T06:55:37;24.60;76.80
10089;DHT22;51898;49.864;8.550;2023-08-20T06:58:40;24.60;76.60
10089;DHT22;51898;49.864;8.550;2023-08-20T07:01:41;24.80;76.10
10089;DHT22;51898;49.864;8.550;2023-08-20T07:04:43;25.00;75.80
10089;DHT22;51898;49.864;8.550;2023-08-20T07:07:45;24.90;76.10
10089;DHT22;51898;49.864;8.550;2023-08-20T07:10:47;24.90;75.90
10089;DHT22;51898;49.864;8.550;2023-08-20T07:13:49;25.10;75.60
10089;DHT22;51898;49.864;8.550;2023-08-20T07:16:51;25.30;75.60
10089;DHT22;51898;49.864;8.550;2023-08-20T07:19:52;25.50;74.80
10089;DHT22;51898;49.864;8.550;2023-08-20T07:22:54;25.70;73.50
10089;DHT22;51898;49.864;8.550;2023-08-20T07:26:10;25.70;73.30
10089;DHT22;51898;49.864;8.550;2023-08-20T07:29:13;25.60;73.80
10089;DHT22;51898;49.864;8.550;2023-08-20T07:32:15;25.60;74.40
10089;DHT22;51898;49.864;8.550;2023-08-20T07:35:17;25.60;74.30
10089;DHT22;51898;49.864;8.550;2023-08-20T07:38:18;25.80;74.70
10089;DHT22;51898;49.864;8.550;2023-08-20T07:41:20;26.00;73.90
10089;DHT22;51898;49.864;8.550;2023-08-20T07:44:22;26.10;73.90
10089;DHT22;51898;49.864;8.550;2023-08-20T07:47:24;26.10;73.00
10089;DHT22;51898;49.864;8.550;2023-08-20T07:50:26;26.20;72.60
10089;DHT22;51898;49.864;8.550;2023-08-20T07:53:28;26.20;72.90
10089;DHT22;51898;49.864;8.550;2023-08-20T07:56:29;26.40;72.50
10089;DHT22;51898;49.864;8.550;2023-08-20T07:59:31;26.50;71.60
10089;DHT22;51898;49.864;8.550;2023-08-20T08:02:33;26.60;71.30
10089;DHT22;51898;49.864;8.550;2023-08-20T08:05:35;26.80;71.60
10089;DHT22;51898;49.864;8.550;2023-08-20T08:08:41;26.90;70.80
10089;DHT22;51898;49.864;8.550;2023-08-20T08:11:43;27.10;69.60
10089;DHT22;51898;49.864;8.550;2023-08-20T08:14:45;27.20;69.30
10089;DHT22;51898;49.864;8.550;2023-08-20T08:17:46;27.20;69.10
10089;DHT22;51898;49.864;8.550;2023-08-20T08:20:49;27.10;69.30
10089;DHT22;51898;49.864;8.550;2023-08-20T08:23:50;27.20;69.40
10089;DHT22;51898;49.864;8.550;2023-08-20T08:26:52;27.40;68.60
10089;DHT22;51898;49.864;8.550;2023-08-20T08:29:54;27.40;67.90
10089;DHT22;51898;49.864;8.550;2023-08-20T08:32:55;27.50;67.90
10089;DHT22;51898;49.864;8.550;2023-08-20T08:35:57;27.60;67.70
10089;DHT22;51898;49.864;8.550;2023-08-20T08:38:59;27.70;67.70
10089;DHT22;51898;49.864;8.550;2023-08-20T08:42:03;27.70;67.80
10089;DHT22;51898;49.864;8.550;2023-08-20T08:45:06;27.70;67.70
10089;DHT22;51898;49.864;8.550;2023-08-20T08:48:08;27.80;66.60
10089;DHT22;51898;49.864;8.550;2023-08-20T08:51:14;27.90;66.10
10089;DHT22;51898;49.864;8.550;2023-08-20T08:54:16;28.00;65.50
10089;DHT22;51898;49.864;8.550;2023-08-20T08:57:18;28.10;65.40
10089;DHT22;51898;49.864;8.550;2023-08-20T09:00:20;28.10;65.20
10089;DHT22;51898;49.864;8.550;2023-08-20T09:03:22;28.20;64.10
10089;DHT22;51898;49.864;8.550;2023-08-20T09:06:25;28.20;64.40
10089;DHT22;51898;49.864;8.550;2023-08-20T09:09:29;28.30;65.30
10089;DHT22;51898;49.864;8.550;2023-08-20T09:12:34;28.50;64.50
10089;DHT22;51898;49.864;8.550;2023-08-20T09:15:36;28.50;63.60
10089;DHT22;51898;49.864;8.550;2023-08-20T09:18:42;28.60;64.80
10089;DHT22;51898;49.864;8.550;2023-08-20T09:21:48;28.80;63.50
10089;DHT22;51898;49.864;8.550;2023-08-20T09:24:56;28.90;63.60
10089;DHT22;51898;49.864;8.550;2023-08-20T09:27:58;29.00;63.10
10089;DHT22;51898;49.864;8.550;2023-08-20T09:31:05;29.10;63.30
10089;DHT22;51898;49.864;8.550;2023-08-20T09:34:12;29.00;62.50
10089;DHT22;51898;49.864;8.550;2023-08-20T09:37:15;29.00;62.40
10089;DHT22;51898;49.864;8.550;2023-08-20T09:40:17;29.10;61.70
10089;DHT22;51898;49.864;8.550;2023-08-20T09:43:19;29.20;60.70
10089;DHT22;51898;49.864;8.550;2023-08-20T09:46:24;29.20;61.40
10089;DHT22;51898;49.864;8.550;2023-08-20T09:49:29;29.20;61.50
10089;DHT22;51898;49.864;8.550;2023-08-20T09:52:40;29.30;60.40
10089;DHT22;51898;49.864;8.550;2023-08-20T09:55:46;29.40;60.30
10089;DHT22;51898;49.864;8.550;2023-08-20T09:58:50;29.40;60.50
10089;DHT22;51898;49.864;8.550;2023-08-20T10:01:52;29.60;59.50
10089;DHT22;51898;49.864;8.550;2023-08-20T10:04:55;29.60;58.50
10089;DHT22;51898;49.864;8.550;2023-08-20T10:07:58;29.60;58.60
10089;DHT22;51898;49.864;8.550;2023-08-20T10:11:00;29.60;58.30
10089;DHT22;51898;49.864;8.550;2023-08-20T10:14:05;29.60;56.90
10089;DHT22;51898;49.864;8.550;2023-08-20T10:17:10;29.60;56.90
10089;DHT22;51898;49.864;8.550;2023-08-20T10:20:14;29.60;56.40
10089;DHT22;51898;49.864;8.550;2023-08-20T10:23:20;29.70;57.40
10089;DHT22;51898;49.864;8.550;2023-08-20T10:26:24;29.80;56.50
10089;DHT22;51898;49.864;8.550;2023-08-20T10:29:41;30.00;56.90
10089;DHT22;51898;49.864;8.550;2023-08-20T10:32:51;29.90;57.40
10089;DHT22;51898;49.864;8.550;2023-08-20T10:35:53;30.00;57.60
10089;DHT22;51898;49.864;8.550;2023-08-20T10:38:55;30.20;57.80
10089;DHT22;51898;49.864;8.550;2023-08-20T10:42:22;30.40;55.50
10089;DHT22;51898;49.864;8.550;2023-08-20T10:45:24;30.50;55.10
10089;DHT22;51898;49.864;8.550;2023-08-20T10:48:26;30.40;55.90
10089;DHT22;51898;49.864;8.550;2023-08-20T10:51:31;30.40;54.70
10089;DHT22;51898;49.864;8.550;2023-08-20T10:54:34;30.40;54.60
10089;DHT22;51898;49.864;8.550;2023-08-20T10:57:36;30.50;53.80
10089;DHT22;51898;49.864;8.550;2023-08-20T11:00:38;30.60;53.60
10089;DHT22;51898;49.864;8.550;2023-08-20T11:03:45;30.60;53.20
10089;DHT22;51898;49.864;8.550;2023-08-20T11:06:54;30.50;54.10
10089;DHT22;51898;49.864;8.550;2023-08-20T11:09:57;30.60;53.60
10089;DHT22;51898;49.864;8.550;2023-08-20T11:12:59;30.60;53.00
10089;DHT22;51898;49.864;8.550;2023-08-20T11:16:08;30.60;52.50
10089;DHT22;51898;49.864;8.550;2023-08-20T11:19:10;30.80;52.80
10089;DHT22;51898;49.864;8.550;2023-08-20T11:22:12;30.90;51.20
10089;DHT22;51898;49.864;8.550;2023-08-20T11:25:15;31.00;52.50
10089;DHT22;51898;49.864;8.550;2023-08-20T11:28:17;31.00;51.90
10089;DHT22;51898;49.864;8.550;2023-08-20T11:31:19;31.10;51.50
10089;DHT22;51898;49.864;8.550;2023-08-20T11:34:21;31.30;51.40
10089;DHT22;51898;49.864;8.550;2023-08-20T11:37:23;31.20;51.20
10089;DHT22;51898;49.864;8.550;2023-08-20T11:40:25;31.10;50.70
10089;DHT22;51898;49.864;8.550;2023-08-20T11:43:30;31.10;51.70
10089;DHT22;51898;49.864;8.550;2023-08-20T11:46:32;31.20;51.20
10089;DHT22;51898;49.864;8.550;2023-08-20T11:49:33;31.40;50.50
10089;DHT22;51898;49.864;8.550;2023-08-20T11:52:36;31.50;50.60
10089;DHT22;51898;49.864;8.550;2023-08-20T11:55:39;31.50;50.20
10089;DHT22;51898;49.864;8.550;2023-08-20T11:58:42;31.50;50.60
10089;DHT22;51898;49.864;8.550;2023-08-20T12:01:51;31.70;49.60
10089;DHT22;51898;49.864;8.550;2023-08-20T12:04:55;31.70;49.80
10089;DHT22;51898;49.864;8.550;2023-08-20T12:07:59;31.80;49.60
10089;DHT22;51898;49.864;8.550;2023-08-20T12:11:03;31.80;49.50
10089;DHT22;51898;49.864;8.550;2023-08-20T12:14:05;32.00;49.10
10089;DHT22;51898;49.864;8.550;2023-08-20T12:17:07;32.00;49.50
10089;DHT22;51898;49.864;8.550;2023-08-20T12:20:09;32.00;49.60
10089;DHT22;51898;49.864;8.550;2023-08-20T12:23:16;31.90;49.10
10089;DHT22;51898;49.864;8.550;2023-08-20T12:26:18;32.10;49.40
10089;DHT22;51898;49.864;8.550;2023-08-20T12:29:20;32.00;48.90
10089;DHT22;51898;49.864;8.550;2023-08-20T12:32:22;32.10;49.30
10089;DHT22;51898;49.864;8.550;2023-08-20T12:35:23;32.20;47.60
10089;DHT22;51898;49.864;8.550;2023-08-20T12:38:25;32.30;48.00
10089;DHT22;51898;49.864;8.550;2023-08-20T12:41:27;32.50;47.80
10089;DHT22;51898;49.864;8.550;2023-08-20T12:44:29;32.50;46.70
10089;DHT22;51898;49.864;8.550;2023-08-20T12:47:30;32.50;46.20
10089;DHT22;51898;49.864;8.550;2023-08-20T12:50:33;32.60;46.20
10089;DHT22;51898;49.864;8.550;2023-08-20T12:53:34;32.70;47.00
10089;DHT22;51898;49.864;8.550;2023-08-20T12:56:39;32.70;46.40
10089;DHT22;51898;49.864;8.550;2023-08-20T12:59:41;32.70;46.10
10089;DHT22;51898;49.864;8.550;2023-08-20T13:02:44;32.70;46.90
10089;DHT22;51898;49.864;8.550;2023-08-20T13:05:46;32.80;46.40
10089;DHT22;51898;49.864;8.550;2023-08-20T13:08:48;32.80;46.10
10089;DHT22;51898;49.864;8.550;2023-08-20T13:11:52;32.90;45.80
10089;DHT22;51898;49.864;8.550;2023-08-20T13:14:55;33.00;44.70
10089;DHT22;51898;49.864;8.550;2023-08-20T13:17:57;33.10;43.80
10089;DHT22;51898;49.864;8.550;2023-08-20T13:20:59;33.20;44.30
10089;DHT22;51898;49.864;8.550;2023-08-20T13:24:00;33.20;44.30
10089;DHT22;51898;49.864;8.550;2023-08-20T13:27:02;33.30;43.60
10089;DHT22;51898;49.864;8.550;2023-08-20T13:30:04;33.60;44.70
10089;DHT22;51898;49.864;8.550;2023-08-20T13:33:06;33.60;44.90
10089;DHT22;51898;49.864;8.550;2023-08-20T13:36:09;33.70;45.50
10089;DHT22;51898;49.864;8.550;2023-08-20T13:39:10;33.70;44.30
10089;DHT22;51898;49.864;8.550;2023-08-20T13:42:15;33.80;44.00
10089;DHT22;51898;49.864;8.550;2023-08-20T13:45:17;33.70;43.90
10089;DHT22;51898;49.864;8.550;2023-08-20T13:48:19;33.70;43.80
10089;DHT22;51898;49.864;8.550;2023-08-20T13:51:20;33.70;43.20
10089;DHT22;51898;49.864;8.550;2023-08-20T13:54:22;33.90;43.50
10089;DHT22;51898;49.864;8.550;2023-08-20T13:57:24;33.80;43.50
10089;DHT22;51898;49.864;8.550;2023-08-20T14:00:25;33.80;43.80
10089;DHT22;51898;49.864;8.550;2023-08-20T14:03:28;33.80;43.90
10089;DHT22;51898;49.864;8.550;2023-08-20T14:06:29;33.80;44.50
10089;DHT22;51898;49.864;8.550;2023-08-20T14:09:31;33.90;42.90
10089;DHT22;51898;49.864;8.550;2023-08-20T14:12:36;33.80;44.20
10089;DHT22;51898;49.864;8.550;2023-08-20T14:15:41;33.90;43.20
10089;DHT22;51898;49.864;8.550;2023-08-20T14:18:43;33.90;43.30
10089;DHT22;51898;49.864;8.550;2023-08-20T14:21:45;33.70;42.60
10089;DHT22;51898;49.864;8.550;2023-08-20T14:24:46;33.70;43.40
10089;DHT22;51898;49.864;8.550;2023-08-20T14:27:48;33.80;42.90
10089;DHT22;51898;49.864;8.550;2023-08-20T14:30:50;33.70;43.20
10089;DHT22;51898;49.864;8.550;2023-08-20T14:33:54;33.70;43.40
10089;DHT22;51898;49.864;8.550;2023-08-20T14:36:56;33.70;43.90
10089;DHT22;51898;49.864;8.550;2023-08-20T14:39:58;33.50;43.90
10089;DHT22;51898;49.864;8.550;2023-08-20T14:43:00;33.30;45.40
10089;DHT22;51898;49.864;8.550;2023-08-20T14:46:01;33.50;44.00
10089;DHT22;51898;49.864;8.550;2023-08-20T14:49:04;33.60;44.70
10089;DHT22;51898;49.864;8.550;2023-08-20T14:52:05;33.80;44.20
10089;DHT22;51898;49.864;8.550;2023-08-20T14:55:28;34.00;43.40
10089;DHT22;51898;49.864;8.550;2023-08-20T14:58:29;34.10;43.30
10089;DHT22;51898;49.864;8.550;2023-08-20T15:01:33;34.10;43.90
10089;DHT22;51898;49.864;8.550;2023-08-20T15:04:35;34.30;43.80
10089;DHT22;51898;49.864;8.550;2023-08-20T15:07:37;34.40;44.00
10089;DHT22;51898;49.864;8.550;2023-08-20T15:10:39;34.50;43.50
10089;DHT22;51898;49.864;8.550;2023-08-20T15:13:41;34.60;43.00
10089;DHT22;51898;49.864;8.550;2023-08-20T15:16:43;34.60;42.60
10089;DHT22;51898;49.864;8.550;2023-08-20T15:19:45;34.60;43.20
10089;DHT22;51898;49.864;8.550;2023-08-20T15:22:46;34.70;42.10
10089;DHT22;51898;49.864;8.550;2023-08-20T15:25:48;34.70;42.40
10089;DHT22;51898;49.864;8.550;2023-08-20T15:28:50;34.70;41.60
10089;DHT22;51898;49.864;8.550;2023-08-20T15:31:51;34.90;42.00
10089;DHT22;51898;49.864;8.550;2023-08-20T15:34:53;34.90;42.20
10089;DHT22;51898;49.864;8.550;2023-08-20T15:37:55;35.00;41.60
10089;DHT22;51898;49.864;8.550;2023-08-20T15:40:57;34.90;41.20
10089;DHT22;51898;49.864;8.550;2023-08-20T15:44:01;34.90;41.10
10089;DHT22;51898;49.864;8.550;2023-08-20T15:47:03;35.00;40.50
10089;DHT22;51898;49.864;8.550;2023-08-20T15:50:05;35.00;40.60
10089;DHT22;51898;49.864;8.550;2023-08-20T15:53:07;35.00;41.50
10089;DHT22;51898;49.864;8.550;2023-08-20T15:56:08;35.10;39.80
10089;DHT22;51898;49.864;8.550;2023-08-20T15:59:10;35.20;39.40
10089;DHT22;51898;49.864;8.550;2023-08-20T16:02:12;35.30;39.20
10089;DHT22;51898;49.864;8.550;2023-08-20T16:05:14;35.40;40.40
10089;DHT22;51898;49.864;8.550;2023-08-20T16:08:15;35.40;38.90
10089;DHT22;51898;49.864;8.550;2023-08-20T16:11:17;35.50;40.20
10089;DHT22;51898;49.864;8.550;2023-08-20T16:14:19;35.70;39.60
10089;DHT22;51898;49.864;8.550;2023-08-20T16:17:21;35.70;39.30
10089;DHT22;51898;49.864;8.550;2023-08-20T16:20:23;35.90;39.20
10089;DHT22;51898;49.864;8.550;2023-08-20T16:23:25;36.00;39.50
10089;DHT22;51898;49.864;8.550;2023-08-20T16:26:26;35.90;38.60
10089;DHT22;51898;49.864;8.550;2023-08-20T16:29:28;35.80;39.60
10089;DHT22;51898;49.864;8.550;2023-08-20T16:32:30;35.70;38.40
10089;DHT22;51898;49.864;8.550;2023-08-20T16:35:33;35.80;38.50
10089;DHT22;51898;49.864;8.550;2023-08-20T16:38:35;35.90;38.40
10089;DHT22;51898;49.864;8.550;2023-08-20T16:41:37;35.90;38.00
10089;DHT22;51898;49.864;8.550;2023-08-20T16:44:39;36.00;38.20
10089;DHT22;51898;49.864;8.550;2023-08-20T16:47:40;36.30;38.10
10089;DHT22;51898;49.864;8.550;2023-08-20T16:50:42;36.60;37.70
10089;DHT22;51898;49.864;8.550;2023-08-20T16:53:45;36.60;38.20
10089;DHT22;51898;49.864;8.550;2023-08-20T16:56:46;36.70;38.10
10089;DHT22;51898;49.864;8.550;2023-08-20T16:59:49;36.90;38.20
10089;DHT22;51898;49.864;8.550;2023-08-20T17:02:50;37.30;37.20
10089;DHT22;51898;49.864;8.550;2023-08-20T17:06:03;37.80;37.70
10089;DHT22;51898;49.864;8.550;2023-08-20T17:09:05;38.10;36.20
10089;DHT22;51898;49.864;8.550;2023-08-20T17:12:07;38.20;35.60
10089;DHT22;51898;49.864;8.550;2023-08-20T17:15:09;38.20;35.70
10089;DHT22;51898;49.864;8.550;2023-08-20T17:18:11;38.30;34.90
10089;DHT22;51898;49.864;8.550;2023-08-20T17:21:16;38.20;35.60
10089;DHT22;51898;49.864;8.550;2023-08-20T17:24:18;38.20;35.60
10089;DHT22;51898;49.864;8.550;2023-08-20T17:27:20;38.20;35.50
10089;DHT22;51898;49.864;8.550;2023-08-20T17:30:22;38.10;35.90
10089;DHT22;51898;49.864;8.550;2023-08-20T17:33:23;37.80;36.80
10089;DHT22;51898;49.864;8.550;2023-08-20T17:36:25;37.60;37.10
10089;DHT22;51898;49.864;8.550;2023-08-20T17:39:27;37.30;37.60
10089;DHT22;51898;49.864;8.550;2023-08-20T17:42:29;37.20;37.50
10089;DHT22;51898;49.864;8.550;2023-08-20T17:45:33;37.10;37.80
10089;DHT22;51898;49.864;8.550;2023-08-20T17:48:35;36.90;38.60
10089;DHT22;51898;49.864;8.550;2023-08-20T17:51:37;36.70;38.90
10089;DHT22;51898;49.864;8.550;2023-08-20T17:54:39;36.50;38.00
10089;DHT22;51898;49.864;8.550;2023-08-20T17:57:40;36.20;38.40
10089;DHT22;51898;49.864;8.550;2023-08-20T18:00:45;35.90;41.40
10089;DHT22;51898;49.864;8.550;2023-08-20T18:03:47;35.40;42.40
10089;DHT22;51898;49.864;8.550;2023-08-20T18:06:48;34.90;44.60
10089;DHT22;51898;49.864;8.550;2023-08-20T18:09:50;34.40;48.10
10089;DHT22;51898;49.864;8.550;2023-08-20T18:12:52;33.90;51.90
10089;DHT22;51898;49.864;8.550;2023-08-20T18:15:54;33.30;54.20
10089;DHT22;51898;49.864;8.550;2023-08-20T18:18:55;32.80;57.00
10089;DHT22;51898;49.864;8.550;2023-08-20T18:21:57;32.30;58.40
10089;DHT22;51898;49.864;8.550;2023-08-20T18:24:59;31.90;59.70
10089;DHT22;51898;49.864;8.550;2023-08-20T18:28:01;31.50;61.30
10089;DHT22;51898;49.864;8.550;2023-08-20T18:31:03;31.30;61.60
10089;DHT22;51898;49.864;8.550;2023-08-20T18:34:05;30.90;61.80
10089;DHT22;51898;49.864;8.550;2023-08-20T18:37:09;30.60;63.30
10089;DHT22;51898;49.864;8.550;2023-08-20T18:40:11;30.40;63.70
10089;DHT22;51898;49.864;8.550;2023-08-20T18:43:12;30.20;63.00
10089;DHT22;51898;49.864;8.550;2023-08-20T18:46:14;29.90;62.90
10089;DHT22;51898;49.864;8.550;2023-08-20T18:49:16;29.70;60.10
10089;DHT22;51898;49.864;8.550;2023-08-20T18:52:20;29.50;60.90
10089;DHT22;51898;49.864;8.550;2023-08-20T18:55:21;29.40;60.80
10089;DHT22;51898;49.864;8.550;2023-08-20T18:58:23;29.20;63.40
10089;DHT22;51898;49.864;8.550;2023-08-20T19:01:28;29.10;63.60
10089;DHT22;51898;49.864;8.550;2023-08-20T19:04:30;29.00;63.20
10089;DHT22;51898;49.864;8.550;2023-08-20T19:07:32;28.90;62.40
10089;DHT22;51898;49.864;8.550;2023-08-20T19:10:33;28.80;62.70
10089;DHT22;51898;49.864;8.550;2023-08-20T19:13:35;28.70;63.00
10089;DHT22;51898;49.864;8.550;2023-08-20T19:16:37;28.70;64.00
10089;DHT22;51898;49.864;8.550;2023-08-20T19:19:38;28.50;64.00
10089;DHT22;51898;49.864;8.550;2023-08-20T19:22:40;28.40;64.60